createdAt,value
2019-02-16T16:07:38.551Z,30.74
2019-02-16T16:08:38.628Z,32.53
2019-02-16T16:09:38.827Z,32.57
2019-02-16T16:10:39.095Z,33.54
2019-02-16T16:11:39.166Z,34.99
2019-02-16T16:12:39.395Z,36.96
2019-02-16T16:13:39.597Z,37.93
2019-02-16T16:14:39.823Z,38.78
2019-02-16T16:15:42.301Z,38.90
2019-02-16T16:16:40.227Z,39.75
2019-02-16T16:17:40.332Z,40.17
2019-02-16T16:18:40.578Z,39.76
2019-02-16T16:19:41.891Z,40.21
2019-02-16T16:20:42.176Z,40.52
2019-02-16T16:21:42.289Z,41.86
2019-02-16T16:22:42.408Z,41.78
2019-02-16T16:23:42.533Z,41.69
2019-02-16T16:24:42.811Z,41.89
2019-02-16T16:25:43.701Z,41.89
2019-02-16T16:26:43.668Z,42.73
2019-02-16T16:27:44.165Z,43.44
2019-02-16T16:28:43.600Z,43.14
2019-02-16T16:29:43.876Z,43.37
2019-02-16T16:30:44.024Z,43.47
2019-02-16T16:31:44.154Z,43.37
2019-02-16T16:32:44.297Z,44.18
2019-02-16T16:33:44.389Z,44.12
2019-02-16T16:34:44.675Z,44.63
2019-02-16T16:35:45.637Z,45.14
2019-02-16T16:36:44.944Z,45.98
2019-02-16T16:37:45.210Z,46.19
2019-02-16T16:38:45.325Z,48.13
2019-02-16T16:39:45.581Z,47.44
2019-02-16T16:40:46.693Z,48.38
2019-02-16T16:41:45.871Z,48.91
2019-02-16T16:42:47.124Z,49.65
2019-02-16T16:43:46.299Z,49.75
2019-02-16T16:44:47.562Z,50.49
2019-02-16T16:45:46.743Z,50.82
2019-02-16T16:46:46.953Z,51.23
2019-02-16T16:47:47.183Z,51.67
2019-02-16T16:48:47.400Z,51.87
2019-02-16T16:49:47.583Z,51.98
2019-02-16T16:50:47.819Z,52.31
2019-02-16T16:51:48.064Z,52.33
2019-02-16T16:52:48.195Z,52.51
2019-02-16T16:53:48.414Z,52.44
2019-02-16T16:54:48.629Z,52.84
2019-02-16T16:55:49.880Z,55.51
2019-02-16T16:56:49.093Z,54.72
2019-02-16T16:57:49.225Z,54.95
2019-02-16T16:58:49.333Z,54.13
2019-02-16T16:59:49.615Z,57.03
2019-02-16T17:00:49.735Z,55.90
2019-02-16T17:01:49.971Z,55.08
2019-02-16T17:02:50.201Z,56.21
2019-02-16T17:16:59.495Z,62.54
2019-02-16T17:17:58.474Z,63.50
2019-02-16T17:18:58.644Z,64.67
2019-02-16T17:19:58.866Z,63.64
2019-02-16T17:20:59.047Z,64.28
2019-02-16T17:21:59.214Z,64.39
2019-02-16T17:23:00.521Z,64.93
2019-02-16T17:24:00.772Z,64.93
2019-02-16T17:25:00.877Z,65.14
2019-02-16T17:26:01.065Z,64.73
2019-02-16T17:27:01.167Z,64.65
2019-02-16T17:28:01.393Z,65.06
2019-02-16T17:29:01.609Z,65.48
2019-02-16T17:30:01.838Z,65.37
2019-02-16T17:31:02.085Z,65.48
2019-02-16T17:32:02.290Z,65.82
2019-02-16T17:33:02.633Z,66.47
2019-02-16T17:34:02.802Z,67.19
2019-02-16T17:35:02.927Z,67.43
2019-02-16T17:36:03.174Z,67.64
2019-02-16T17:37:03.211Z,67.36
2019-02-16T17:38:03.412Z,67.36
2019-02-16T17:39:03.588Z,68.80
2019-02-16T17:40:03.685Z,69.04
2019-02-16T17:41:03.949Z,70.70
2019-02-16T17:42:04.222Z,69.84
2019-02-16T17:43:04.414Z,69.77
2019-02-16T17:44:04.616Z,69.77
2019-02-16T17:45:04.783Z,70.50
2019-02-16T17:46:04.886Z,71.15
2019-02-16T17:47:05.011Z,71.18
2019-02-16T17:48:05.248Z,71.49
2019-02-16T17:49:05.401Z,71.18
2019-02-16T17:50:05.516Z,71.91
2019-02-16T17:51:05.801Z,71.70
2019-02-16T17:52:05.883Z,71.70
2019-02-16T17:53:06.090Z,71.28
2019-02-16T17:54:08.538Z,70.94
2019-02-16T17:55:07.445Z,70.46
2019-02-16T17:56:06.631Z,70.97
2019-02-16T17:57:06.803Z,71.94
2019-02-16T17:58:06.871Z,72.53
2019-02-16T17:59:07.114Z,72.05
2019-02-16T18:30:26.525Z,76.89
2019-02-16T18:31:28.432Z,76.57
2019-02-16T18:32:31.276Z,76.99
2019-02-16T18:33:29.250Z,77.55
2019-02-16T18:34:28.448Z,77.72
2019-02-16T18:35:28.666Z,77.20
2019-02-16T18:36:28.899Z,76.92
2019-02-16T18:37:30.052Z,77.65
2019-02-16T18:38:30.956Z,78.00
2019-02-16T18:39:29.387Z,77.79
2019-02-16T18:40:29.706Z,78.93
2019-02-16T18:41:30.012Z,79.07
2019-02-16T18:42:30.007Z,77.89
2019-02-16T18:43:30.212Z,78.86
2019-02-16T18:44:30.470Z,79.17
2019-02-16T18:45:30.602Z,78.66
2019-02-16T18:46:30.773Z,78.97
2019-02-16T18:47:30.889Z,79.69
2019-02-16T18:48:31.093Z,79.69
2019-02-16T18:49:31.196Z,79.49
2019-02-16T18:50:32.433Z,79.42
2019-02-16T18:51:31.488Z,80.88
2019-02-16T18:52:31.615Z,81.29
2019-02-16T18:53:31.859Z,80.98
2019-02-16T18:54:32.143Z,80.77
2019-02-16T18:55:32.317Z,81.19
2019-02-16T18:56:32.522Z,81.50
2019-02-16T18:57:32.666Z,81.98
2019-02-16T18:58:32.749Z,79.63
2019-02-16T18:59:33.024Z,80.67
2019-02-16T20:00:38.370Z,85.29
2019-02-16T20:01:39.749Z,85.08
2019-02-16T20:02:39.889Z,85.74
2019-02-16T20:03:39.967Z,85.53
2019-02-16T20:04:40.177Z,86.58
2019-02-16T20:05:40.372Z,86.79
2019-02-16T20:06:40.634Z,88.26
2019-02-16T20:07:40.745Z,88.88
2019-02-16T20:08:40.972Z,89.05
2019-02-16T20:09:41.185Z,88.64
2019-02-16T20:10:41.449Z,88.64
2019-02-16T20:11:41.565Z,88.95
2019-02-16T20:12:41.792Z,87.86
2019-02-16T20:13:42.058Z,88.07
2019-02-16T20:14:42.196Z,86.96
2019-02-16T20:15:42.365Z,86.85
2019-02-16T20:16:42.507Z,86.96
2019-02-16T20:17:42.788Z,87.07
2019-02-16T20:18:42.925Z,86.96
2019-02-16T20:19:43.059Z,87.07
2019-02-16T20:20:43.213Z,86.75
2019-02-16T20:21:43.334Z,88.32
2019-02-16T20:22:43.455Z,88.70
2019-02-16T20:23:43.746Z,87.82
2019-02-16T20:24:43.894Z,88.34
2019-02-16T20:25:44.059Z,86.88
2019-02-16T20:26:44.246Z,86.67
2019-02-16T20:27:44.393Z,85.63
2019-02-16T20:28:44.546Z,85.11
2019-02-16T20:29:44.781Z,85.25
2019-02-16T20:30:44.971Z,84.66
2019-02-16T20:31:45.149Z,84.87
2019-02-16T20:32:45.288Z,85.64
2019-02-16T20:33:45.557Z,85.60
2019-02-16T20:34:45.664Z,86.27
2019-02-16T20:35:45.884Z,87.10
2019-02-16T20:36:46.046Z,86.37
2019-02-16T20:37:46.203Z,86.47
2019-02-16T20:38:46.336Z,85.58
2019-02-16T20:39:46.499Z,85.36
2019-02-16T20:40:46.656Z,85.47
2019-02-16T20:41:46.788Z,86.35
2019-02-16T20:42:46.989Z,87.08
2019-02-16T20:43:47.188Z,86.87
2019-02-16T20:44:47.329Z,87.18
2019-02-16T20:45:47.478Z,88.86
2019-02-16T20:46:47.585Z,88.54
2019-02-16T20:47:48.087Z,88.65
2019-02-16T20:48:48.125Z,89.59
2019-02-16T20:49:48.265Z,89.65
2019-02-16T20:50:48.481Z,89.23
2019-02-16T20:51:48.639Z,89.34
2019-02-16T20:52:48.756Z,88.61
2019-02-16T20:53:49.036Z,89.23
2019-02-16T20:54:49.091Z,88.29
2019-02-16T20:55:49.283Z,87.25
2019-02-16T20:56:49.472Z,85.93
2019-02-16T20:57:49.612Z,86.35
2019-02-16T20:58:49.858Z,85.82
2019-02-16T20:59:49.887Z,85.75
2019-02-16T21:15:35.117Z,88.52
2019-02-16T21:16:35.271Z,88.42
2019-02-16T21:17:35.402Z,88.46
2019-02-16T21:18:35.527Z,87.93
2019-02-16T21:19:35.683Z,88.04
2019-02-16T21:20:35.838Z,87.41
2019-02-16T21:21:35.980Z,88.29
2019-02-16T21:22:36.107Z,87.30
2019-02-16T21:23:36.269Z,87.24
2019-02-16T21:24:36.439Z,87.03
2019-02-16T21:25:36.617Z,88.49
2019-02-16T21:26:39.726Z,88.22
2019-02-16T21:27:37.034Z,88.75
2019-02-16T21:28:37.257Z,89.86
2019-02-16T21:29:37.448Z,89.59
2019-02-16T21:30:37.617Z,89.65
2019-02-16T21:31:37.820Z,90.28
2019-02-16T21:32:38.037Z,89.97
2019-02-16T21:33:38.208Z,89.75
2019-02-16T21:34:38.427Z,91.22
2019-02-16T21:35:38.654Z,92.13
2019-02-16T21:36:38.857Z,91.50
2019-02-16T21:37:39.049Z,91.24
2019-02-16T21:38:40.457Z,91.77
2019-02-16T21:39:40.608Z,91.14
2019-02-16T21:40:40.743Z,90.83
2019-02-16T21:41:40.862Z,91.14
2019-02-16T21:42:41.097Z,91.14
2019-02-16T21:43:41.231Z,91.14
2019-02-16T21:44:41.436Z,91.03
2019-02-16T21:45:41.577Z,90.20
2019-02-16T21:46:41.701Z,90.30
2019-02-16T21:47:41.860Z,90.20
2019-02-16T21:48:42.054Z,89.25
2019-02-16T21:49:42.229Z,89.25
2019-02-16T21:50:42.398Z,89.78
2019-02-16T21:51:42.562Z,89.36
2019-02-16T21:52:43.388Z,88.73
2019-02-16T21:53:43.096Z,88.87
2019-02-16T21:54:43.098Z,87.93
2019-02-16T21:55:43.240Z,88.46
2019-02-16T21:56:43.458Z,87.83
2019-02-16T21:57:43.612Z,88.07
2019-02-16T21:58:44.711Z,88.49
2019-02-16T21:59:43.955Z,88.07
